createdAt,value
2022-09-30T00:00:25.157Z,96490.56
2022-09-30T00:02:51.824Z,96498.75
2022-09-30T00:05:18.741Z,96486.13
2022-09-30T00:07:45.337Z,96491.88
2022-09-30T00:10:13.688Z,96492.22
2022-09-30T00:12:40.783Z,96483.50
2022-09-30T00:15:07.820Z,96474.47
2022-09-30T00:17:34.708Z,96468.97
2022-09-30T00:20:01.448Z,96463.88
2022-09-30T00:22:30.463Z,96460.59
2022-09-30T00:24:57.123Z,96455.94
2022-09-30T00:27:23.764Z,96461.88
2022-09-30T00:29:51.036Z,96460.38
2022-09-30T00:32:17.690Z,96452.06
2022-09-30T00:34:44.441Z,96465.31
2022-09-30T00:37:15.728Z,96468.63
2022-09-30T00:39:42.380Z,96464.94
2022-09-30T00:42:14.591Z,96464.94
2022-09-30T00:44:54.775Z,96473.31
2022-09-30T00:47:28.653Z,96460.94
2022-09-30T00:50:00.043Z,96454.75
2022-09-30T00:52:27.116Z,96462.31
2022-09-30T00:54:57.808Z,96451.81
2022-09-30T00:57:27.040Z,96437.41
2022-09-30T00:59:54.611Z,96434.69
2022-09-30T01:02:24.304Z,96444.13
2022-09-30T01:04:51.108Z,96446.41
2022-09-30T01:07:18.007Z,96435.47
2022-09-30T01:09:45.227Z,96458.06
2022-09-30T01:12:19.400Z,96458.34
2022-09-30T01:14:47.600Z,96453.56
2022-09-30T01:17:32.366Z,96459.00
2022-09-30T01:20:14.040Z,96461.47
2022-09-30T01:22:49.643Z,96457.44
2022-09-30T01:25:52.805Z,96474.16
2022-09-30T01:28:56.919Z,96485.41
2022-09-30T01:32:11.263Z,96467.59
2022-09-30T01:34:51.675Z,96476.72
2022-09-30T01:37:24.464Z,96483.19
2022-09-30T01:40:35.881Z,96466.44
2022-09-30T01:43:12.206Z,96465.63
2022-09-30T01:45:42.844Z,96462.38
2022-09-30T01:48:35.223Z,96449.09
2022-09-30T01:51:18.225Z,96448.38
2022-09-30T01:53:56.294Z,96456.97
2022-09-30T01:56:30.513Z,96449.00
2022-09-30T01:59:14.441Z,96453.38
2022-09-30T02:02:07.041Z,96461.50
2022-09-30T02:04:40.455Z,96460.72
2022-09-30T02:07:11.111Z,96448.22
2022-09-30T02:09:43.113Z,96479.69
2022-09-30T02:12:15.843Z,96469.66
2022-09-30T02:14:47.232Z,96459.25
2022-09-30T02:17:30.028Z,96459.97
2022-09-30T02:20:06.117Z,96463.34
2022-09-30T02:22:48.166Z,96464.56
2022-09-30T02:25:22.684Z,96451.59
2022-09-30T02:27:57.130Z,96475.78
2022-09-30T02:30:26.378Z,96465.72
2022-09-30T02:33:00.523Z,96453.44
2022-09-30T02:35:34.499Z,96460.31
2022-09-30T02:38:10.968Z,96454.06
2022-09-30T02:40:45.004Z,96448.47
2022-09-30T02:43:11.736Z,96435.56
2022-09-30T02:46:03.623Z,96450.75
2022-09-30T02:48:44.391Z,96447.03
2022-09-30T02:51:22.889Z,96440.69
2022-09-30T02:54:04.382Z,96446.31
2022-09-30T02:56:48.219Z,96443.84
2022-09-30T02:59:15.709Z,96443.25
2022-09-30T03:01:43.642Z,96461.44
2022-09-30T03:04:14.445Z,96456.31
2022-09-30T03:06:41.171Z,96448.38
2022-09-30T03:09:08.888Z,96440.84
2022-09-30T03:11:37.440Z,96460.44
2022-09-30T03:14:38.676Z,96472.81
2022-09-30T03:17:05.388Z,96458.09
2022-09-30T03:19:58.143Z,96464.09
2022-09-30T03:22:55.360Z,96463.75
2022-09-30T03:25:53.480Z,96440.66
2022-09-30T03:28:30.400Z,96453.59
2022-09-30T03:31:11.641Z,96464.72
2022-09-30T03:34:00.855Z,96471.59
2022-09-30T03:36:38.836Z,96459.47
2022-09-30T03:39:49.364Z,96473.50
2022-09-30T03:42:23.268Z,96461.06
2022-09-30T03:45:20.242Z,96448.03
2022-09-30T03:47:53.663Z,96447.97
2022-09-30T03:50:24.678Z,96439.44
2022-09-30T03:52:52.329Z,96438.91
2022-09-30T03:55:20.067Z,96438.19
2022-09-30T03:57:46.919Z,96434.94
2022-09-30T04:00:14.750Z,96432.66
2022-09-30T04:02:42.142Z,96416.06
2022-09-30T04:05:08.922Z,96416.38
2022-09-30T04:07:36.105Z,96434.47
2022-09-30T04:10:02.999Z,96443.88
2022-09-30T04:12:29.632Z,96437.28
2022-09-30T04:14:56.240Z,96453.41
2022-09-30T04:17:23.134Z,96465.19
2022-09-30T04:19:50.076Z,96461.19
2022-09-30T04:22:17.037Z,96455.63
2022-09-30T04:24:44.012Z,96461.19
2022-09-30T04:27:10.633Z,96463.88
2022-09-30T04:29:37.245Z,96448.06
2022-09-30T04:32:03.948Z,96437.78
2022-09-30T04:34:31.194Z,96447.97
2022-09-30T04:36:57.956Z,96445.34
2022-09-30T04:39:24.571Z,96427.94
2022-09-30T04:41:53.977Z,96428.22
2022-09-30T04:44:21.614Z,96432.72
2022-09-30T04:46:48.733Z,96432.72
2022-09-30T04:49:15.365Z,96438.91
2022-09-30T04:51:46.189Z,96447.84
2022-09-30T04:54:13.522Z,96444.00
2022-09-30T04:56:40.105Z,96435.50
2022-09-30T04:59:07.296Z,96438.91
2022-09-30T05:01:34.802Z,96443.88
2022-09-30T05:04:01.950Z,96434.72
2022-09-30T05:06:31.388Z,96427.00
2022-09-30T05:08:58.063Z,96439.16
2022-09-30T05:11:27.459Z,96436.78
2022-09-30T05:13:54.320Z,96438.63
2022-09-30T05:16:21.875Z,96436.88
2022-09-30T05:18:49.501Z,96442.66
2022-09-30T05:21:20.605Z,96438.38
2022-09-30T05:23:47.731Z,96445.31
2022-09-30T05:26:14.929Z,96454.47
2022-09-30T05:28:42.428Z,96446.81
2022-09-30T05:31:09.622Z,96429.41
2022-09-30T05:33:36.900Z,96449.97
2022-09-30T05:36:07.283Z,96452.13
2022-09-30T05:38:34.812Z,96444.81
2022-09-30T05:41:10.177Z,96442.97
2022-09-30T05:43:41.226Z,96432.13
2022-09-30T05:46:08.257Z,96435.16
2022-09-30T05:48:34.882Z,96433.94
2022-09-30T05:51:02.194Z,96436.66
2022-09-30T05:53:32.011Z,96430.53
2022-09-30T05:55:59.650Z,96421.59
2022-09-30T05:58:27.651Z,96420.31
2022-09-30T06:00:54.640Z,96427.50
2022-09-30T06:03:21.183Z,96426.38
2022-09-30T06:05:48.033Z,96410.47
2022-09-30T06:08:15.580Z,96414.31
2022-09-30T06:10:43.945Z,96429.59
2022-09-30T06:13:11.068Z,96424.94
2022-09-30T06:15:39.798Z,96422.78
2022-09-30T06:18:06.900Z,96413.72
2022-09-30T06:20:33.930Z,96425.03
2022-09-30T06:23:01.688Z,96429.66
2022-09-30T06:25:29.544Z,96425.84
2022-09-30T06:27:56.863Z,96419.53
2022-09-30T06:30:24.037Z,96422.38
2022-09-30T06:32:51.651Z,96426.06
2022-09-30T06:35:21.573Z,96427.63
2022-09-30T06:37:53.813Z,96427.63
2022-09-30T06:40:21.497Z,96414.41
2022-09-30T06:42:49.682Z,96420.91
2022-09-30T06:45:29.100Z,96427.09
2022-09-30T06:48:03.284Z,96425.59
2022-09-30T06:50:30.956Z,96415.06
2022-09-30T06:53:04.624Z,96418.06
2022-09-30T06:55:31.329Z,96430.38
2022-09-30T06:57:57.992Z,96422.75
2022-09-30T07:00:31.501Z,96418.34
2022-09-30T07:02:58.155Z,96439.50
2022-09-30T07:05:28.385Z,96440.66
2022-09-30T07:07:55.148Z,96428.84
2022-09-30T07:10:21.864Z,96429.00
2022-09-30T07:12:52.381Z,96450.47
2022-09-30T07:15:23.366Z,96470.91
2022-09-30T07:18:01.657Z,96470.75
2022-09-30T07:20:28.249Z,96478.03
2022-09-30T07:22:55.711Z,96492.59
2022-09-30T07:25:22.391Z,96504.16
2022-09-30T07:27:49.000Z,96506.03
2022-09-30T07:30:25.945Z,96523.72
2022-09-30T07:32:55.870Z,96556.91
2022-09-30T07:35:24.460Z,96568.06
2022-09-30T07:37:53.356Z,96566.75
2022-09-30T07:40:22.364Z,96575.44
2022-09-30T07:42:48.972Z,96590.31
2022-09-30T07:45:17.165Z,96607.53
2022-09-30T07:47:43.919Z,96620.09
2022-09-30T07:50:11.725Z,96644.19
2022-09-30T07:52:38.377Z,96674.47
2022-09-30T07:55:05.232Z,96715.59
2022-09-30T07:57:31.899Z,96758.63
2022-09-30T08:00:08.162Z,96804.81
2022-09-30T08:02:46.623Z,96859.16
2022-09-30T08:05:13.332Z,96916.53
2022-09-30T08:07:40.536Z,96977.03
2022-09-30T08:10:07.740Z,97023.63
2022-09-30T08:12:34.772Z,97082.22
2022-09-30T08:15:01.960Z,97124.53
2022-09-30T08:17:28.593Z,97193.63
2022-09-30T08:19:55.170Z,97244.09
2022-09-30T08:22:23.919Z,97283.75
2022-09-30T08:24:50.516Z,97293.84
2022-09-30T08:27:17.171Z,97309.84
2022-09-30T08:29:54.813Z,97319.56
2022-09-30T08:32:22.696Z,97337.34
2022-09-30T08:34:49.231Z,97338.56
2022-09-30T08:37:17.860Z,97367.00
2022-09-30T08:39:44.548Z,97381.72
2022-09-30T08:42:39.436Z,97400.28
2022-09-30T08:45:32.504Z,97403.00
2022-09-30T08:48:26.752Z,97402.63
2022-09-30T08:51:27.668Z,97411.22
2022-09-30T08:53:56.025Z,97415.44
2022-09-30T08:56:25.956Z,97426.72
2022-09-30T08:59:20.313Z,97436.91
2022-09-30T09:01:54.288Z,97469.13
2022-09-30T09:04:20.944Z,97470.41
2022-09-30T09:07:05.897Z,97487.84
2022-09-30T09:09:44.609Z,97506.66
2022-09-30T09:12:29.019Z,97514.16
2022-09-30T09:15:20.347Z,97540.16
2022-09-30T09:18:29.656Z,97543.03
2022-09-30T09:21:02.123Z,97552.88
2022-09-30T09:23:33.041Z,97571.25
2022-09-30T09:26:00.227Z,97599.22
2022-09-30T09:28:40.132Z,97593.06
2022-09-30T09:31:14.681Z,97602.94
2022-09-30T09:33:43.306Z,97618.81
2022-09-30T09:36:15.967Z,97617.69
2022-09-30T09:38:59.590Z,97622.53
2022-09-30T09:41:38.185Z,97633.41
2022-09-30T09:44:39.389Z,97634.09
2022-09-30T09:47:14.214Z,97637.25
2022-09-30T09:49:44.728Z,97638.28
2022-09-30T09:52:12.593Z,97633.69
2022-09-30T09:54:42.151Z,97639.19
2022-09-30T09:57:17.581Z,97636.13
2022-09-30T10:00:32.985Z,97645.41
2022-09-30T10:03:09.297Z,97647.69
2022-09-30T10:05:40.012Z,97641.56
2022-09-30T10:08:19.829Z,97636.97
2022-09-30T10:11:09.192Z,97641.78
2022-09-30T10:13:38.820Z,97668.22
2022-09-30T10:16:05.805Z,97674.47
2022-09-30T10:18:34.890Z,97680.69
2022-09-30T10:21:28.985Z,97725.84
2022-09-30T10:23:57.756Z,97759.63
2022-09-30T10:28:57.232Z,97777.25
2022-09-30T10:31:28.271Z,97775.44
2022-09-30T10:34:06.812Z,97775.53
2022-09-30T10:36:39.509Z,97782.09
2022-09-30T10:39:29.665Z,97786.13
2022-09-30T10:42:03.064Z,97784.56
2022-09-30T10:44:30.380Z,97784.28
2022-09-30T10:47:03.229Z,97787.00
2022-09-30T10:49:37.301Z,97790.97
2022-09-30T10:52:04.569Z,97793.44
2022-09-30T10:54:42.247Z,97785.78
2022-09-30T10:57:27.511Z,97787.72
2022-09-30T11:00:00.759Z,97795.16
2022-09-30T11:02:32.265Z,97837.56
2022-09-30T11:05:10.855Z,97855.47
2022-09-30T11:07:46.356Z,97859.59
2022-09-30T11:10:15.749Z,97872.75
2022-09-30T11:12:49.013Z,97865.13
2022-09-30T11:15:31.784Z,97870.56
2022-09-30T11:18:18.887Z,97879.78
2022-09-30T11:20:51.692Z,97881.19
2022-09-30T11:23:27.784Z,97879.06
2022-09-30T11:26:09.436Z,97884.25
2022-09-30T11:28:59.760Z,97893.91
2022-09-30T11:31:56.873Z,97891.66
2022-09-30T11:34:46.933Z,97873.50
2022-09-30T11:37:23.444Z,97873.91
2022-09-30T11:40:19.991Z,97877.88
2022-09-30T11:42:57.339Z,97880.22
2022-09-30T11:45:54.303Z,97895.94
2022-09-30T11:48:38.829Z,97912.63
2022-09-30T11:51:23.943Z,97899.81
2022-09-30T11:54:11.192Z,97909.03
2022-09-30T11:56:56.236Z,97902.88
2022-09-30T11:59:45.536Z,97901.78
2022-09-30T12:02:33.344Z,97906.94
2022-09-30T12:05:07.859Z,97917.06
2022-09-30T12:07:38.229Z,97925.88
2022-09-30T12:10:25.864Z,97916.75
2022-09-30T12:13:00.254Z,97912.91
2022-09-30T12:15:27.460Z,97912.53
2022-09-30T12:18:03.224Z,97912.91
2022-09-30T12:20:36.145Z,97918.06
2022-09-30T12:23:20.948Z,97920.00
2022-09-30T12:25:55.816Z,97926.50
2022-09-30T12:28:57.910Z,97930.88
2022-09-30T12:31:57.446Z,97926.28
2022-09-30T12:34:39.129Z,97930.66
2022-09-30T12:37:23.869Z,97933.53
2022-09-30T12:40:08.678Z,97933.63
2022-09-30T12:42:48.021Z,97936.25
2022-09-30T12:45:31.310Z,97945.31
2022-09-30T12:48:00.282Z,97935.19
2022-09-30T12:50:30.089Z,97924.31
2022-09-30T12:52:58.230Z,97922.38
2022-09-30T12:55:31.307Z,97916.25
2022-09-30T12:58:02.342Z,97917.06
2022-09-30T13:00:34.713Z,97925.22
2022-09-30T13:03:15.609Z,97937.53
2022-09-30T13:05:43.534Z,97946.16
2022-09-30T13:08:12.770Z,97940.06
2022-09-30T13:10:39.901Z,97948.03
2022-09-30T13:13:27.972Z,97954.31
2022-09-30T13:16:07.586Z,97961.13
2022-09-30T13:18:34.125Z,97955.06
2022-09-30T13:21:07.971Z,97953.88
2022-09-30T13:23:46.552Z,97944.88
2022-09-30T13:26:35.067Z,97943.41
2022-09-30T13:29:01.559Z,97937.84
2022-09-30T13:31:48.228Z,97937.41
2022-09-30T13:34:23.020Z,97928.38
2022-09-30T13:36:52.251Z,97926.16
2022-09-30T13:39:44.887Z,97920.78
2022-09-30T13:42:20.685Z,97924.22
2022-09-30T13:45:18.565Z,97916.50
2022-09-30T13:48:02.127Z,97922.22
2022-09-30T13:50:33.558Z,97916.22
2022-09-30T13:53:08.856Z,97895.47
2022-09-30T13:55:47.764Z,97882.59
2022-09-30T13:58:39.858Z,97894.47
2022-09-30T14:01:19.097Z,97892.47
2022-09-30T14:04:02.393Z,97867.28
2022-09-30T14:06:45.468Z,97840.53
2022-09-30T14:09:26.944Z,97843.28
2022-09-30T14:12:13.993Z,97837.03
2022-09-30T14:15:09.424Z,97805.34
2022-09-30T14:17:54.861Z,97787.84
2022-09-30T14:20:50.643Z,97797.38
2022-09-30T14:23:18.930Z,97803.75
2022-09-30T14:26:00.350Z,97814.13
2022-09-30T14:28:58.191Z,97814.63
2022-09-30T14:31:25.390Z,97793.00
2022-09-30T14:33:54.468Z,97774.66
2022-09-30T14:36:22.666Z,97763.28
2022-09-30T14:38:53.949Z,97749.03
2022-09-30T14:41:23.459Z,97745.47
2022-09-30T14:43:56.728Z,97740.34
2022-09-30T14:46:38.988Z,97718.13
2022-09-30T14:49:09.560Z,97724.72
2022-09-30T14:51:43.606Z,97731.13
2022-09-30T14:54:22.494Z,97730.78
2022-09-30T14:56:50.732Z,97715.13
2022-09-30T14:59:26.905Z,97713.75
2022-09-30T15:02:00.672Z,97695.56
2022-09-30T15:04:34.951Z,97676.91
2022-09-30T15:07:04.132Z,97690.50
2022-09-30T15:09:36.287Z,97699.94
2022-09-30T15:12:12.318Z,97716.72
2022-09-30T15:14:59.918Z,97709.81
2022-09-30T15:17:28.954Z,97727.44
2022-09-30T15:19:57.973Z,97724.63
2022-09-30T15:22:27.460Z,97730.34
2022-09-30T15:24:55.148Z,97747.78
2022-09-30T15:27:26.005Z,97737.56
2022-09-30T15:30:00.853Z,97713.41
2022-09-30T15:32:32.896Z,97719.13
2022-09-30T15:35:07.949Z,97746.56
2022-09-30T15:37:34.904Z,97729.09
2022-09-30T15:40:22.883Z,97726.09
2022-09-30T15:43:01.799Z,97715.84
2022-09-30T15:45:35.440Z,97686.09
2022-09-30T15:48:08.146Z,97670.97
2022-09-30T15:50:35.656Z,97676.91
2022-09-30T15:53:14.564Z,97628.69
2022-09-30T15:55:43.781Z,97619.03
2022-09-30T15:58:33.677Z,97577.41
2022-09-30T16:01:10.723Z,97518.78
2022-09-30T16:03:39.903Z,97508.41
2022-09-30T16:06:12.548Z,97515.97
2022-09-30T16:09:01.217Z,97479.72
2022-09-30T16:11:41.880Z,97446.38
2022-09-30T16:14:12.612Z,97452.63
2022-09-30T16:16:39.248Z,97426.34
2022-09-30T16:19:09.595Z,97396.09
2022-09-30T16:21:51.488Z,97403.44
2022-09-30T16:24:32.214Z,97377.44
2022-09-30T16:27:15.616Z,97361.97
2022-09-30T16:29:43.205Z,97371.31
2022-09-30T16:32:10.181Z,97343.75
2022-09-30T16:34:38.155Z,97332.19
2022-09-30T16:37:11.504Z,97352.31
2022-09-30T16:39:38.252Z,97355.53
2022-09-30T16:42:05.109Z,97349.84
2022-09-30T16:44:35.504Z,97350.28
2022-09-30T16:47:02.904Z,97304.16
2022-09-30T16:49:29.499Z,97282.69
2022-09-30T16:51:56.092Z,97269.75
2022-09-30T16:54:22.683Z,97255.94
2022-09-30T16:56:49.563Z,97222.41
2022-09-30T16:59:17.877Z,97236.66
2022-09-30T17:01:45.248Z,97233.13
2022-09-30T17:04:15.238Z,97205.34
2022-09-30T17:06:44.090Z,97216.34
2022-09-30T17:09:10.673Z,97204.19
2022-09-30T17:11:38.227Z,97190.50
2022-09-30T17:14:05.812Z,97194.63
2022-09-30T17:16:33.875Z,97191.41
2022-09-30T17:19:00.647Z,97163.41
2022-09-30T17:21:27.568Z,97149.88
2022-09-30T17:23:55.536Z,97154.97
2022-09-30T17:26:22.603Z,97125.34
2022-09-30T17:28:49.149Z,97115.66
2022-09-30T17:31:15.888Z,97105.81
2022-09-30T17:33:42.734Z,97063.50
2022-09-30T17:36:11.927Z,97057.28
2022-09-30T17:38:39.366Z,97077.91
2022-09-30T17:41:25.492Z,97042.47
2022-09-30T17:43:52.096Z,97015.78
2022-09-30T17:46:23.547Z,97002.75
2022-09-30T17:48:54.693Z,96977.22
2022-09-30T17:51:21.411Z,96972.88
2022-09-30T17:53:49.277Z,96989.06
2022-09-30T17:56:20.025Z,96977.38
2022-09-30T17:58:52.553Z,96965.72
2022-09-30T18:01:20.998Z,96960.53
2022-09-30T18:03:47.978Z,96967.03
2022-09-30T18:06:14.693Z,96955.38
2022-09-30T18:08:41.456Z,96972.53
2022-09-30T18:11:08.028Z,96959.06
2022-09-30T18:13:34.920Z,96963.22
2022-09-30T18:16:06.145Z,96988.38
2022-09-30T18:18:35.204Z,96985.16
2022-09-30T18:21:02.175Z,96959.44
2022-09-30T18:23:28.833Z,96966.22
2022-09-30T18:25:56.533Z,96963.47
2022-09-30T18:28:23.389Z,96949.47
2022-09-30T18:30:50.001Z,96957.03
2022-09-30T18:33:17.458Z,96967.25
2022-09-30T18:35:44.948Z,96976.69
2022-09-30T18:38:14.828Z,96984.56
2022-09-30T18:40:43.591Z,97012.47
2022-09-30T18:43:13.984Z,97028.84
2022-09-30T18:45:41.047Z,97042.81
2022-09-30T18:48:08.509Z,97069.91
2022-09-30T18:50:35.532Z,97097.69
2022-09-30T18:53:09.475Z,97113.03
2022-09-30T18:55:37.288Z,97139.84
2022-09-30T18:58:03.925Z,97133.59
2022-09-30T19:00:31.625Z,97147.44
2022-09-30T19:02:58.309Z,97168.25
2022-09-30T19:05:25.748Z,97181.16
2022-09-30T19:07:53.781Z,97210.75
2022-09-30T19:10:22.808Z,97239.53
2022-09-30T19:12:49.736Z,97247.59
2022-09-30T19:15:16.495Z,97267.16
2022-09-30T19:17:44.650Z,97278.28
2022-09-30T19:20:12.506Z,97294.72
2022-09-30T19:22:39.192Z,97295.06
2022-09-30T19:25:13.052Z,97306.16
2022-09-30T19:27:41.418Z,97322.94
2022-09-30T19:30:13.026Z,97332.78
2022-09-30T19:32:40.074Z,97344.41
2022-09-30T19:35:11.874Z,97352.03
2022-09-30T19:37:43.069Z,97347.66
2022-09-30T19:40:20.822Z,97351.84
2022-09-30T19:42:49.510Z,97372.06
2022-09-30T19:45:17.317Z,97379.22
2022-09-30T19:47:44.550Z,97382.50
2022-09-30T19:50:11.188Z,97378.91
2022-09-30T19:52:47.964Z,97381.16
2022-09-30T19:55:20.464Z,97392.72
2022-09-30T19:57:47.044Z,97385.03
2022-09-30T20:00:14.602Z,97385.03
2022-09-30T20:02:41.322Z,97387.28
2022-09-30T20:05:08.311Z,97395.06
2022-09-30T20:07:35.236Z,97398.97
2022-09-30T20:10:02.115Z,97392.00
2022-09-30T20:12:31.183Z,97396.34
2022-09-30T20:15:16.232Z,97349.41
2022-09-30T20:17:42.805Z,97308.63
2022-09-30T20:20:28.192Z,97299.69
2022-09-30T20:22:55.064Z,97294.03
2022-09-30T20:25:21.756Z,97290.41
2022-09-30T20:27:52.104Z,97292.97
2022-09-30T20:30:19.362Z,97296.66
2022-09-30T20:32:46.078Z,97258.75
2022-09-30T20:35:13.012Z,97236.41
2022-09-30T20:37:40.989Z,97201.81
2022-09-30T20:40:09.684Z,97137.00
2022-09-30T20:42:38.712Z,97111.16
2022-09-30T20:45:10.166Z,97105.25
2022-09-30T20:47:42.357Z,97070.47
2022-09-30T20:50:10.379Z,97028.53
2022-09-30T20:52:37.060Z,97011.91
2022-09-30T20:55:04.016Z,96961.63
2022-09-30T20:57:30.587Z,96929.75
2022-09-30T21:00:00.247Z,96895.66
2022-09-30T21:02:28.222Z,96834.09
2022-09-30T21:04:57.640Z,96783.09
2022-09-30T21:07:27.133Z,96774.97
2022-09-30T21:09:54.018Z,96723.78
2022-09-30T21:12:20.815Z,96712.03
2022-09-30T21:14:47.570Z,96711.38
2022-09-30T21:17:14.271Z,96694.03
2022-09-30T21:19:40.820Z,96693.09
2022-09-30T21:22:07.627Z,96694.53
2022-09-30T21:24:34.171Z,96690.31
2022-09-30T21:27:05.825Z,96687.06
2022-09-30T21:29:33.347Z,96685.28
2022-09-30T21:32:00.173Z,96687.72
2022-09-30T21:34:27.020Z,96697.78
2022-09-30T21:36:53.678Z,96696.09
2022-09-30T21:39:20.308Z,96685.50
2022-09-30T21:41:47.722Z,96695.66
2022-09-30T21:44:16.825Z,96693.03
2022-09-30T21:46:48.180Z,96688.59
2022-09-30T21:49:19.503Z,96708.16
2022-09-30T21:51:46.894Z,96711.31
2022-09-30T21:54:14.113Z,96703.03
2022-09-30T21:56:42.978Z,96703.69
2022-09-30T21:59:12.815Z,96693.28
2022-09-30T22:01:40.468Z,96691.94
2022-09-30T22:04:07.626Z,96695.78
2022-09-30T22:06:34.542Z,96681.00
2022-09-30T22:09:01.726Z,96673.50
2022-09-30T22:11:30.099Z,96681.13
2022-09-30T22:13:57.988Z,96674.19
2022-09-30T22:16:27.283Z,96675.16
2022-09-30T22:18:55.607Z,96681.91
2022-09-30T22:21:22.225Z,96668.91
2022-09-30T22:23:49.632Z,96679.91
2022-09-30T22:26:18.803Z,96687.03
2022-09-30T22:28:47.460Z,96678.28
2022-09-30T22:31:24.072Z,96676.88
2022-09-30T22:34:31.256Z,96688.22
2022-09-30T22:37:19.654Z,96669.09
2022-09-30T22:39:46.321Z,96683.69
2022-09-30T22:42:13.111Z,96673.66
2022-09-30T22:44:42.589Z,96671.56
2022-09-30T22:47:24.580Z,96683.78
2022-09-30T22:49:58.300Z,96669.19
2022-09-30T22:52:24.924Z,96678.56
2022-09-30T22:54:55.577Z,96694.19
2022-09-30T22:57:24.379Z,96680.06
2022-09-30T22:59:56.633Z,96696.22
2022-09-30T23:02:23.287Z,96697.59
2022-09-30T23:04:51.519Z,96696.69
2022-09-30T23:07:18.130Z,96714.63
2022-09-30T23:09:44.919Z,96708.88
2022-09-30T23:12:20.761Z,96716.31
2022-09-30T23:14:47.385Z,96702.97
2022-09-30T23:17:21.409Z,96700.84
2022-09-30T23:19:50.896Z,96695.25
2022-09-30T23:22:37.133Z,96689.91
2022-09-30T23:27:51.027Z,96662.03
2022-09-30T23:30:17.790Z,96649.81
2022-09-30T23:35:50.044Z,96627.38
2022-09-30T23:38:31.189Z,96610.53
2022-09-30T23:41:00.474Z,96574.31
2022-09-30T23:43:46.644Z,96569.22
2022-09-30T23:46:14.385Z,96537.47
2022-09-30T23:48:41.093Z,96527.06
2022-09-30T23:51:08.067Z,96503.75
2022-09-30T23:53:35.559Z,96494.25
2022-09-30T23:56:08.313Z,96489.06
2022-09-30T23:58:35.903Z,96462.09
